Time;durP1;ratioP1;P1;durP2;ratioP2;P2;SDS_P1;SDS_P2;PMS_P1;PMS_P2;Temp;Humidity;BMP_temperature;BMP_pressure;BME280_temperature;BME280_humidity;BME280_pressure;Samples;Min_cycle;Max_cycle;Signal;HPM_P1;HPM_P2
2022/03/18 00:01:52;;;;;;;12.17;8.10;;;8.40;1.00;;;;;;6300720;28;20378;-55
2022/03/18 00:04:55;;;;;;;10.27;7.93;;;8.40;1.00;;;;;;6303575;28;20275;-54
2022/03/18 00:07:58;;;;;;;13.10;7.53;;;8.40;1.00;;;;;;6308905;28;20717;-55
2022/03/18 00:11:02;;;;;;;12.13;7.47;;;8.40;1.00;;;;;;6293353;28;20289;-55
2022/03/18 00:14:06;;;;;;;12.03;7.63;;;8.40;1.00;;;;;;6310849;28;21406;-55
2022/03/18 00:17:10;;;;;;;11.43;7.30;;;8.40;1.00;;;;;;6301630;28;20433;-55
2022/03/18 00:20:14;;;;;;;8.97;7.80;;;8.30;1.00;;;;;;6299769;28;20331;-55
2022/03/18 00:23:17;;;;;;;11.00;7.53;;;8.30;1.00;;;;;;6309631;28;20239;-55
2022/03/18 00:26:19;;;;;;;7.83;7.17;;;8.40;1.00;;;;;;6298947;28;20699;-55
2022/03/18 00:29:25;;;;;;;8.90;7.33;;;8.30;1.00;;;;;;6288541;28;20233;-55
2022/03/18 00:32:28;;;;;;;10.70;7.77;;;8.40;1.00;;;;;;6304396;28;20417;-56
2022/03/18 00:35:30;;;;;;;7.63;6.90;;;8.40;1.00;;;;;;6302387;28;20275;-55
2022/03/18 00:38:34;;;;;;;11.37;7.77;;;8.40;1.00;;;;;;6304321;28;20309;-54
2022/03/18 00:41:37;;;;;;;8.40;7.53;;;8.30;1.00;;;;;;6291394;28;20260;-55
2022/03/18 00:44:41;;;;;;;8.00;7.20;;;8.40;1.00;;;;;;6308460;28;20636;-55
2022/03/18 00:54:25;;;;;;;9.73;7.77;;;8.30;1.00;;;;;;6302169;28;20321;-54
2022/03/18 00:57:28;;;;;;;8.53;7.17;;;8.30;1.00;;;;;;6306578;28;20260;-55
2022/03/18 01:00:32;;;;;;;11.53;7.83;;;8.30;1.00;;;;;;6293589;28;20324;-55
2022/03/18 01:03:35;;;;;;;8.27;7.47;;;8.30;1.00;;;;;;6304110;28;20237;-56
2022/03/18 01:06:38;;;;;;;8.30;6.90;;;8.30;1.00;;;;;;6291454;28;20896;-53
2022/03/18 01:09:41;;;;;;;11.43;7.30;;;8.30;1.00;;;;;;6306299;28;20291;-56
2022/03/18 01:12:43;;;;;;;14.40;7.77;;;8.30;1.00;;;;;;6305075;28;20649;-55
2022/03/18 01:15:48;;;;;;;16.63;8.03;;;8.30;1.00;;;;;;6298834;28;20325;-56
2022/03/18 01:18:51;;;;;;;12.73;7.17;;;8.30;1.00;;;;;;6301901;28;20743;-54
2022/03/18 01:21:53;;;;;;;11.87;7.40;;;8.20;1.00;;;;;;6300963;28;20258;-54
2022/03/18 01:24:56;;;;;;;8.20;7.50;;;8.20;1.00;;;;;;6301825;28;20324;-56
2022/03/18 01:28:01;;;;;;;14.07;7.87;;;8.20;1.00;;;;;;6303551;28;20319;-55
2022/03/18 01:31:06;;;;;;;7.93;7.03;;;8.30;1.00;;;;;;6305760;28;20549;-55
2022/03/18 01:34:08;;;;;;;12.77;7.23;;;8.30;1.00;;;;;;6293325;28;20508;-55
2022/03/18 01:37:11;;;;;;;9.67;7.20;;;8.20;1.00;;;;;;6299746;28;20236;-55
2022/03/18 01:40:14;;;;;;;8.17;7.37;;;8.20;1.00;;;;;;6296000;28;20312;-55
2022/03/18 01:43:17;;;;;;;7.87;7.27;;;8.20;1.00;;;;;;6292406;28;20314;-55
2022/03/18 01:46:21;;;;;;;13.63;7.93;;;8.20;1.00;;;;;;6295944;28;20374;-55
2022/03/18 01:49:24;;;;;;;9.50;7.33;;;8.30;1.00;;;;;;6301052;28;20315;-56
2022/03/18 01:52:28;;;;;;;9.73;6.90;;;8.30;1.00;;;;;;6296939;28;20339;-55
2022/03/18 01:55:31;;;;;;;11.93;7.80;;;8.20;1.00;;;;;;6310353;28;20324;-56
2022/03/18 01:58:34;;;;;;;9.83;7.63;;;8.20;1.00;;;;;;6298087;28;20240;-54
2022/03/18 02:01:38;;;;;;;9.50;6.77;;;8.20;1.00;;;;;;6294097;28;20747;-54
2022/03/18 02:04:42;;;;;;;10.40;6.63;;;8.20;1.00;;;;;;6307233;28;20237;-56
2022/03/18 02:07:45;;;;;;;9.70;6.73;;;8.10;1.00;;;;;;6295719;28;20286;-56
2022/03/18 02:10:49;;;;;;;8.50;7.00;;;8.30;1.00;;;;;;6303106;28;20697;-55
2022/03/18 02:13:52;;;;;;;8.43;7.10;;;8.10;1.00;;;;;;6300144;28;20297;-55
2022/03/18 02:16:56;;;;;;;9.23;6.97;;;8.20;1.00;;;;;;6302751;28;20319;-55
2022/03/18 02:19:59;;;;;;;8.97;6.83;;;8.20;1.00;;;;;;6305440;28;20514;-55
2022/03/18 02:23:03;;;;;;;13.97;6.57;;;8.20;1.00;;;;;;6300561;28;20267;-56
2022/03/18 02:26:06;;;;;;;12.13;7.07;;;8.20;1.00;;;;;;6303779;28;20256;-55
2022/03/18 02:29:09;;;;;;;10.47;7.03;;;8.20;1.00;;;;;;6296488;28;20254;-56
2022/03/18 02:32:13;;;;;;;10.60;7.10;;;8.10;1.00;;;;;;6287155;28;20237;-55
2022/03/18 02:35:16;;;;;;;14.00;7.33;;;8.20;1.00;;;;;;6307497;28;20232;-55
2022/03/18 02:38:20;;;;;;;11.50;6.50;;;8.20;1.00;;;;;;6299008;28;20334;-55
2022/03/18 02:41:23;;;;;;;7.67;6.53;;;8.20;1.00;;;;;;6295635;28;20240;-55
2022/03/18 02:44:25;;;;;;;9.10;5.97;;;8.10;1.00;;;;;;6302559;28;20244;-55
2022/03/18 02:47:28;;;;;;;10.93;6.00;;;8.20;1.00;;;;;;6303788;28;20638;-55
2022/03/18 02:50:31;;;;;;;13.33;6.07;;;8.10;1.00;;;;;;6293730;28;20300;-55
2022/03/18 02:53:35;;;;;;;8.43;5.90;;;8.10;1.00;;;;;;6287660;28;20584;-56
2022/03/18 02:56:38;;;;;;;12.73;6.40;;;8.10;1.00;;;;;;6290833;28;20281;-55
2022/03/18 02:59:41;;;;;;;10.63;6.17;;;8.10;1.00;;;;;;6303256;28;20236;-56
2022/03/18 03:02:44;;;;;;;7.17;6.03;;;8.10;1.00;;;;;;6303191;28;20740;-55
2022/03/18 03:09:09;;;;;;;9.77;5.77;;;8.20;1.00;;;;;;6296328;28;20932;-54
2022/03/18 03:12:12;;;;;;;10.13;6.10;;;8.10;1.00;;;;;;6298915;28;20316;-55
2022/03/18 03:15:15;;;;;;;13.00;5.30;;;8.10;1.00;;;;;;6301546;28;20279;-56
2022/03/18 03:18:18;;;;;;;11.70;6.30;;;8.00;1.00;;;;;;6304128;28;20374;-55
2022/03/18 03:21:21;;;;;;;10.07;6.10;;;8.00;1.00;;;;;;6288911;28;20855;-55
2022/03/18 03:24:26;;;;;;;10.60;5.47;;;8.00;1.00;;;;;;6300380;28;20269;-55
2022/03/18 03:27:30;;;;;;;6.67;5.37;;;8.00;1.00;;;;;;6292387;28;20334;-55
2022/03/18 03:30:33;;;;;;;15.13;6.20;;;8.00;1.00;;;;;;6286992;28;20331;-55
2022/03/18 03:33:36;;;;;;;8.90;5.47;;;8.00;1.00;;;;;;6299937;28;20365;-55
2022/03/18 03:36:39;;;;;;;8.80;5.63;;;8.10;1.00;;;;;;6299501;28;20289;-56
2022/03/18 03:39:44;;;;;;;9.57;5.77;;;8.10;1.00;;;;;;6288781;28;20692;-55
2022/03/18 03:42:46;;;;;;;12.23;5.63;;;8.00;1.00;;;;;;6306467;28;20318;-54
2022/03/18 03:45:49;;;;;;;10.70;5.50;;;8.00;1.00;;;;;;6307146;28;20259;-55
2022/03/18 03:48:52;;;;;;;6.97;5.03;;;8.00;1.00;;;;;;6290132;28;20309;-55
2022/03/18 03:51:55;;;;;;;12.80;5.73;;;8.00;1.00;;;;;;6297550;28;20307;-54
2022/03/18 03:54:59;;;;;;;10.97;5.50;;;8.00;1.00;;;;;;6308695;28;20240;-59
2022/03/18 03:58:02;;;;;;;13.40;5.83;;;8.10;1.00;;;;;;6300556;28;20371;-55
2022/03/18 04:01:05;;;;;;;11.57;5.43;;;8.00;1.00;;;;;;6303191;28;20224;-54
2022/03/18 04:04:08;;;;;;;8.50;5.33;;;8.00;1.00;;;;;;6295828;28;20490;-54
2022/03/18 04:07:10;;;;;;;9.40;5.50;;;8.00;1.00;;;;;;6297706;28;20290;-57
2022/03/18 04:10:15;;;;;;;10.87;5.30;;;8.00;1.00;;;;;;6303532;28;20312;-56
2022/03/18 04:13:18;;;;;;;8.73;5.40;;;8.00;1.00;;;;;;6298819;28;20315;-54
2022/03/18 04:16:21;;;;;;;11.33;5.50;;;7.90;1.00;;;;;;6297892;28;20256;-55
2022/03/18 04:19:25;;;;;;;16.27;5.60;;;8.00;1.00;;;;;;6302656;28;20225;-56
2022/03/18 04:22:28;;;;;;;8.67;5.40;;;8.00;1.00;;;;;;6298287;28;20236;-55
2022/03/18 04:25:32;;;;;;;10.03;5.50;;;7.90;1.00;;;;;;6304515;28;20351;-56
2022/03/18 04:28:35;;;;;;;9.57;5.30;;;7.80;1.00;;;;;;6311461;28;20506;-55
2022/03/18 04:31:38;;;;;;;5.70;5.07;;;7.80;1.00;;;;;;6287727;28;20232;-54
2022/03/18 04:34:41;;;;;;;9.40;5.13;;;7.80;1.00;;;;;;6292451;28;20749;-54
2022/03/18 04:37:44;;;;;;;9.07;5.17;;;7.80;1.00;;;;;;6305324;28;20304;-56
2022/03/18 04:40:48;;;;;;;10.80;5.00;;;7.80;1.00;;;;;;6308052;28;20236;-55
2022/03/18 04:43:51;;;;;;;8.60;4.70;;;7.80;1.00;;;;;;6304279;28;20611;-56
2022/03/18 04:46:53;;;;;;;11.63;4.87;;;7.80;1.00;;;;;;6308620;28;20224;-55
2022/03/18 04:49:56;;;;;;;12.97;5.40;;;7.70;1.00;;;;;;6306761;28;20248;-54
2022/03/18 04:52:59;;;;;;;7.43;4.87;;;7.70;1.00;;;;;;6302572;28;20794;-54
2022/03/18 04:56:03;;;;;;;13.73;5.60;;;7.70;1.00;;;;;;6300585;28;20328;-55
2022/03/18 04:59:06;;;;;;;7.00;5.40;;;7.60;1.00;;;;;;6310939;28;20237;-55
2022/03/18 05:02:10;;;;;;;13.83;5.30;;;7.60;1.00;;;;;;6296615;28;20720;-55
2022/03/18 05:05:19;;;;;;;8.43;5.07;;;7.50;1.00;;;;;;6297932;28;20240;-55
2022/03/18 05:08:27;;;;;;;9.93;5.23;;;7.60;1.00;;;;;;6306360;28;20303;-56
2022/03/18 05:11:31;;;;;;;11.60;5.13;;;7.50;1.00;;;;;;6307459;28;20239;-58
2022/03/18 05:14:35;;;;;;;7.33;4.90;;;7.50;1.00;;;;;;6303380;28;20247;-56
2022/03/18 05:17:39;;;;;;;13.20;5.77;;;7.40;1.00;;;;;;6307610;28;20372;-55
2022/03/18 05:20:42;;;;;;;11.23;5.40;;;7.30;1.00;;;;;;6306739;28;20485;-55
2022/03/18 05:23:45;;;;;;;10.17;4.93;;;7.10;1.00;;;;;;6307380;28;20248;-55
2022/03/18 05:26:49;;;;;;;14.00;4.93;;;7.30;1.00;;;;;;6309350;28;20336;-54
2022/03/18 05:29:52;;;;;;;11.50;4.97;;;7.20;1.00;;;;;;6306120;28;20742;-55
2022/03/18 05:32:55;;;;;;;12.37;4.87;;;7.10;1.00;;;;;;6308605;28;20418;-55
2022/03/18 05:35:58;;;;;;;18.20;4.90;;;7.10;1.00;;;;;;6306256;28;20243;-55
2022/03/18 05:39:01;;;;;;;13.60;5.60;;;7.10;1.00;;;;;;6307928;28;20324;-55
2022/03/18 05:42:06;;;;;;;16.97;5.17;;;7.10;1.00;;;;;;6308222;28;20313;-57
2022/03/18 05:45:09;;;;;;;14.80;5.77;;;7.10;1.00;;;;;;6309674;28;20240;-55
2022/03/18 05:48:12;;;;;;;11.90;5.43;;;7.10;1.00;;;;;;6300782;28;20358;-55
2022/03/18 05:51:15;;;;;;;11.83;5.20;;;7.20;1.00;;;;;;6305329;28;20229;-55
2022/03/18 05:54:18;;;;;;;15.90;5.43;;;7.20;1.00;;;;;;6304768;28;20228;-54
2022/03/18 05:57:24;;;;;;;12.90;5.43;;;7.40;1.00;;;;;;6305168;28;20646;-55
2022/03/18 06:00:27;;;;;;;18.07;5.53;;;7.10;1.00;;;;;;6304433;28;20273;-55
2022/03/18 06:03:30;;;;;;;18.87;5.97;;;7.00;1.00;;;;;;6300411;28;20912;-55
2022/03/18 06:06:33;;;;;;;9.17;4.80;;;7.30;1.00;;;;;;6304788;28;20241;-55
2022/03/18 06:12:58;;;;;;;9.90;5.10;;;7.00;1.00;;;;;;6305624;28;20228;-55
2022/03/18 06:16:01;;;;;;;17.73;6.20;;;6.90;1.00;;;;;;6306794;28;20239;-55
2022/03/18 06:19:16;;;;;;;14.23;4.90;;;6.90;1.00;;;;;;6305987;28;20231;-56
2022/03/18 06:22:19;;;;;;;10.27;4.80;;;6.90;1.00;;;;;;6302777;28;20368;-55
2022/03/18 06:25:23;;;;;;;8.13;5.23;;;6.90;1.00;;;;;;6307942;28;20323;-56
2022/03/18 06:28:27;;;;;;;14.60;5.00;;;6.90;1.00;;;;;;6306234;28;20320;-54
2022/03/18 06:31:30;;;;;;;15.77;6.23;;;7.20;1.00;;;;;;6306533;28;20696;-54
2022/03/18 06:34:33;;;;;;;11.60;5.33;;;6.80;1.00;;;;;;6307027;28;20254;-55
2022/03/18 06:37:36;;;;;;;11.00;5.30;;;7.10;1.00;;;;;;6308070;28;20845;-55
2022/03/18 06:40:39;;;;;;;16.60;5.30;;;6.90;1.00;;;;;;6302510;28;20240;-55
2022/03/18 06:43:43;;;;;;;10.30;5.27;;;6.90;1.00;;;;;;6307755;28;20274;-55
2022/03/18 06:46:46;;;;;;;16.33;5.13;;;6.80;1.00;;;;;;6300770;28;20327;-54
2022/03/18 06:49:49;;;;;;;9.93;4.73;;;7.10;1.00;;;;;;6306637;28;20518;-55
2022/03/18 06:52:52;;;;;;;12.43;4.97;;;6.90;1.00;;;;;;6306764;28;20256;-55
2022/03/18 06:55:54;;;;;;;11.03;4.53;;;7.00;1.00;;;;;;6304420;28;20319;-55
2022/03/18 06:58:59;;;;;;;12.80;5.20;;;7.10;1.00;;;;;;6301664;28;20278;-54
2022/03/18 07:02:02;;;;;;;9.53;5.37;;;7.10;1.00;;;;;;6304160;28;20244;-54
2022/03/18 07:05:06;;;;;;;11.97;5.33;;;7.20;1.00;;;;;;6288238;28;20252;-59
2022/03/18 07:08:08;;;;;;;10.87;5.50;;;7.30;1.00;;;;;;6300913;28;20274;-55
2022/03/18 07:11:13;;;;;;;17.80;5.27;;;7.40;1.00;;;;;;6302336;28;20729;-55
2022/03/18 07:14:17;;;;;;;8.67;5.07;;;7.40;1.00;;;;;;6306808;28;20647;-57
2022/03/18 07:20:41;;;;;;;13.57;5.17;;;7.80;1.00;;;;;;6305258;28;20310;-55
2022/03/18 07:23:44;;;;;;;14.37;5.37;;;7.70;1.00;;;;;;6304563;28;20265;-56
2022/03/18 07:26:47;;;;;;;11.67;5.10;;;7.80;1.00;;;;;;6303204;28;20229;-55
2022/03/18 07:29:51;;;;;;;12.23;5.33;;;7.70;1.00;;;;;;6300717;28;20309;-56
2022/03/18 07:32:54;;;;;;;14.70;5.43;;;7.80;1.00;;;;;;6296388;28;20225;-56
2022/03/18 07:35:57;;;;;;;8.67;4.37;;;7.60;1.00;;;;;;6301384;28;20240;-54
2022/03/18 07:39:00;;;;;;;13.10;4.90;;;7.60;1.00;;;;;;6305983;28;20600;-55
2022/03/18 07:42:04;;;;;;;9.53;5.10;;;7.70;1.00;;;;;;6295244;28;20232;-56
2022/03/18 07:45:11;;;;;;;10.73;4.67;;;7.60;1.00;;;;;;6305730;28;20268;-55
2022/03/18 07:48:14;;;;;;;12.57;5.23;;;7.60;1.00;;;;;;6298932;28;20308;-55
2022/03/18 07:51:16;;;;;;;10.57;5.00;;;7.70;1.00;;;;;;6300807;28;20317;-55
2022/03/18 07:54:19;;;;;;;11.40;5.00;;;7.80;1.00;;;;;;6303043;28;20279;-55
2022/03/18 07:57:22;;;;;;;13.70;5.13;;;7.90;1.00;;;;;;6297858;28;20366;-55
2022/03/18 08:00:27;;;;;;;13.90;4.87;;;8.00;1.00;;;;;;6309874;28;20220;-55
2022/03/18 08:03:29;;;;;;;13.63;4.87;;;8.00;1.00;;;;;;6306451;28;20800;-56
2022/03/18 08:06:33;;;;;;;15.40;4.97;;;8.10;1.00;;;;;;6299650;28;20239;-56
2022/03/18 08:09:36;;;;;;;14.07;4.80;;;8.10;1.00;;;;;;6309768;28;20237;-55
2022/03/18 08:12:40;;;;;;;11.87;4.57;;;8.20;1.00;;;;;;6307977;28;20232;-55
2022/03/18 08:15:45;;;;;;;11.23;4.97;;;8.30;1.00;;;;;;6308210;28;20669;-55
2022/03/18 08:18:48;;;;;;;8.97;5.10;;;8.40;1.00;;;;;;6309344;28;20256;-56
2022/03/18 08:21:50;;;;;;;18.07;5.23;;;8.50;1.00;;;;;;6297855;28;20290;-55
2022/03/18 08:24:53;;;;;;;13.23;5.27;;;8.50;1.00;;;;;;6307669;28;20325;-54
2022/03/18 08:27:56;;;;;;;13.00;5.10;;;8.60;1.00;;;;;;6297239;28;20229;-56
2022/03/18 08:31:00;;;;;;;12.87;5.07;;;8.60;1.00;;;;;;6303136;28;20345;-54
2022/03/18 08:34:03;;;;;;;15.87;5.63;;;8.70;1.00;;;;;;6307065;28;20747;-54
2022/03/18 08:37:06;;;;;;;13.90;5.20;;;8.90;1.00;;;;;;6308083;28;20265;-55
2022/03/18 08:40:11;;;;;;;12.40;5.27;;;8.90;1.00;;;;;;6308522;28;20380;-52
2022/03/18 08:43:14;;;;;;;10.80;4.90;;;8.90;1.00;;;;;;6302790;28;20714;-55
2022/03/18 08:46:18;;;;;;;13.30;6.13;;;9.10;1.00;;;;;;6308205;28;20714;-55
2022/03/18 08:49:21;;;;;;;12.00;5.20;;;9.10;1.00;;;;;;6301006;28;20253;-53
2022/03/18 08:52:24;;;;;;;9.27;5.37;;;9.20;1.00;;;;;;6304688;28;20233;-54
2022/03/18 08:55:27;;;;;;;16.33;5.00;;;9.20;1.00;;;;;;6308593;28;20871;-55
2022/03/18 08:58:30;;;;;;;12.03;5.00;;;9.30;1.00;;;;;;6304852;28;20682;-56
2022/03/18 09:01:34;;;;;;;17.13;5.13;;;9.40;1.00;;;;;;6307663;28;20236;-54
2022/03/18 09:04:37;;;;;;;10.87;5.37;;;9.40;1.00;;;;;;6303817;28;20243;-54
2022/03/18 09:07:45;;;;;;;13.13;5.17;;;9.50;1.00;;;;;;6306379;28;20233;-54
2022/03/18 09:10:48;;;;;;;13.87;5.57;;;9.60;1.00;;;;;;6308327;28;20775;-54
2022/03/18 09:13:50;;;;;;;12.23;5.20;;;9.70;1.00;;;;;;6306840;28;20267;-55
2022/03/18 09:16:54;;;;;;;15.60;5.63;;;9.90;1.00;;;;;;6302978;28;20733;-54
2022/03/18 09:19:57;;;;;;;13.40;5.57;;;9.90;1.00;;;;;;6309097;28;20709;-56
2022/03/18 09:23:00;;;;;;;12.10;5.50;;;10.00;1.00;;;;;;6307302;28;20240;-56
2022/03/18 09:26:03;;;;;;;12.73;5.50;;;10.00;1.00;;;;;;6305651;28;20332;-54
2022/03/18 09:29:05;;;;;;;14.23;6.47;;;10.20;1.00;;;;;;6307487;28;20229;-55
2022/03/18 09:32:10;;;;;;;14.13;6.33;;;10.10;1.00;;;;;;6305179;28;21123;-55
2022/03/18 09:35:14;;;;;;;7.43;4.97;;;10.20;1.00;;;;;;6303355;28;20237;-55
2022/03/18 09:38:17;;;;;;;6.63;4.80;;;10.20;1.00;;;;;;6303635;28;20328;-54
2022/03/18 09:41:20;;;;;;;15.33;5.13;;;10.20;1.00;;;;;;6302493;28;20768;-60
2022/03/18 09:44:23;;;;;;;12.47;5.73;;;10.30;1.00;;;;;;6306978;28;20336;-55
2022/03/18 09:47:31;;;;;;;19.07;5.97;;;10.30;1.00;;;;;;6303844;28;20347;-56
2022/03/18 09:50:35;;;;;;;13.67;5.60;;;10.40;1.00;;;;;;6298172;28;20785;-61
2022/03/18 09:53:37;;;;;;;19.83;5.93;;;10.60;1.00;;;;;;6296788;28;20478;-54
2022/03/18 09:56:41;;;;;;;12.97;6.20;;;10.80;1.00;;;;;;6307189;28;20325;-56
2022/03/18 09:59:44;;;;;;;10.10;6.60;;;11.00;1.00;;;;;;6307128;28;20324;-54
2022/03/18 10:03:07;;;;;;;16.67;6.90;;;11.20;1.00;;;;;;6303814;28;20401;-55
2022/03/18 10:06:11;;;;;;;17.67;6.90;;;11.30;1.00;;;;;;6300581;28;20241;-55
2022/03/18 10:09:15;;;;;;;11.97;7.90;;;11.60;1.00;;;;;;6304941;28;20263;-55
2022/03/18 10:12:29;;;;;;;14.43;7.33;;;11.70;1.00;;;;;;6297412;28;20659;-55
2022/03/18 10:15:34;;;;;;;12.40;6.60;;;11.80;1.00;;;;;;6300940;28;20264;-56
2022/03/18 10:18:48;;;;;;;15.30;7.10;;;11.70;1.00;;;;;;6298714;28;20233;-56
2022/03/18 10:21:54;;;;;;;18.80;7.00;;;12.00;1.00;;;;;;6304964;28;20247;-57
2022/03/18 10:24:56;;;;;;;11.50;6.70;;;12.10;1.00;;;;;;6305448;28;20333;-56
2022/03/18 10:27:59;;;;;;;10.43;6.10;;;12.10;1.00;;;;;;6306118;28;20301;-56
2022/03/18 10:31:15;;;;;;;14.87;6.93;;;12.10;1.00;;;;;;6300131;28;20339;-56
2022/03/18 10:37:45;;;;;;;11.40;6.90;;;12.40;1.00;;;;;;6297917;28;20726;-54
2022/03/18 10:40:50;;;;;;;15.40;6.90;;;12.50;1.00;;;;;;6304542;28;20316;-54
2022/03/18 10:43:54;;;;;;;17.33;7.20;;;12.50;1.00;;;;;;6307737;28;20256;-55
2022/03/18 10:46:57;;;;;;;15.00;7.33;;;12.60;1.00;;;;;;6305359;28;20332;-54
2022/03/18 10:50:24;;;;;;;11.93;7.23;;;12.70;1.00;;;;;;6302203;28;21298;-54
2022/03/18 10:53:30;;;;;;;16.63;6.70;;;12.70;1.00;;;;;;6303856;28;20312;-55
2022/03/18 10:56:52;;;;;;;16.37;9.37;;;12.90;1.00;;;;;;6298201;28;20228;-56
2022/03/18 10:59:55;;;;;;;15.80;8.00;;;12.90;1.00;;;;;;6308317;28;20316;-54
2022/03/18 11:03:00;;;;;;;12.67;7.80;;;13.00;1.00;;;;;;6304979;28;20935;-54
2022/03/18 11:06:06;;;;;;;13.53;6.67;;;13.20;1.00;;;;;;6300890;28;20256;-55
2022/03/18 11:09:11;;;;;;;16.63;7.20;;;13.30;1.00;;;;;;6300733;28;20286;-55
2022/03/18 11:12:13;;;;;;;10.90;7.50;;;13.40;1.00;;;;;;6298710;28;20296;-55
2022/03/18 11:15:16;;;;;;;19.17;7.53;;;13.60;1.00;;;;;;6306337;28;20303;-54
2022/03/18 11:18:20;;;;;;;12.97;7.33;;;13.50;1.00;;;;;;6302720;28;20381;-55
2022/03/18 11:21:35;;;;;;;11.03;6.93;;;13.50;1.00;;;;;;6304238;28;20323;-55
2022/03/18 11:24:39;;;;;;;9.90;6.50;;;13.60;1.00;;;;;;6306823;28;20433;-56
2022/03/18 11:27:44;;;;;;;13.57;7.37;;;13.60;1.00;;;;;;6299085;28;20386;-54
2022/03/18 11:30:48;;;;;;;15.07;7.67;;;13.70;1.00;;;;;;6304866;28;20259;-54
2022/03/18 11:34:11;;;;;;;11.43;7.13;;;13.70;1.00;;;;;;6299395;28;20268;-56
2022/03/18 11:37:15;;;;;;;15.13;6.80;;;13.80;1.00;;;;;;6305356;28;20241;-56
2022/03/18 11:40:30;;;;;;;10.27;6.73;;;13.90;1.00;;;;;;6311308;28;20224;-55
2022/03/18 11:43:34;;;;;;;11.37;6.33;;;14.00;1.00;;;;;;6305965;28;20298;-54
2022/03/18 11:46:38;;;;;;;14.93;6.83;;;14.00;1.00;;;;;;6311570;28;20617;-55
2022/03/18 11:49:41;;;;;;;9.73;6.33;;;14.10;1.00;;;;;;6309863;28;20245;-56
2022/03/18 11:52:57;;;;;;;10.17;6.00;;;14.10;1.00;;;;;;6304030;28;20244;-56
2022/03/18 11:56:11;;;;;;;11.43;6.03;;;14.10;1.00;;;;;;6309990;28;20248;-55
2022/03/18 11:59:46;;;;;;;11.37;6.60;;;14.10;1.00;;;;;;6309885;28;20781;-56
2022/03/18 12:02:49;;;;;;;15.30;5.97;;;14.20;1.00;;;;;;6310314;28;20321;-55
2022/03/18 12:05:54;;;;;;;9.33;6.50;;;14.20;1.00;;;;;;6312357;28;20626;-55
2022/03/18 12:08:59;;;;;;;11.10;6.00;;;14.40;1.00;;;;;;6306738;28;20252;-56
2022/03/18 12:12:15;;;;;;;11.47;5.77;;;14.60;1.00;;;;;;6311109;28;20255;-55
2022/03/18 12:15:22;;;;;;;12.90;6.30;;;14.60;1.00;;;;;;6311846;28;20398;-55
2022/03/18 12:18:27;;;;;;;9.87;6.07;;;14.70;1.00;;;;;;6307713;28;20232;-56
2022/03/18 12:21:43;;;;;;;10.00;5.23;;;14.90;1.00;;;;;;6305159;28;20233;-55
2022/03/18 12:24:50;;;;;;;7.40;5.10;;;15.00;1.00;;;;;;6310775;28;20312;-56
2022/03/18 12:27:55;;;;;;;7.67;6.10;;;15.00;1.00;;;;;;6302968;28;20323;-55
2022/03/18 12:31:13;;;;;;;10.70;5.70;;;14.80;1.00;;;;;;6309819;28;20233;-54
2022/03/18 12:34:19;;;;;;;11.93;5.27;;;14.80;1.00;;;;;;6301776;28;20706;-55
2022/03/18 12:37:23;;;;;;;8.77;4.97;;;14.70;1.00;;;;;;6305850;28;20232;-54
2022/03/18 12:40:27;;;;;;;6.67;4.30;;;14.70;1.00;;;;;;6311777;28;20224;-56
2022/03/18 12:43:32;;;;;;;8.27;4.40;;;14.60;1.00;;;;;;6290174;28;20228;-54
2022/03/18 12:46:37;;;;;;;10.27;4.97;;;14.70;1.00;;;;;;6307390;28;20358;-56
2022/03/18 12:49:40;;;;;;;13.80;5.10;;;14.70;1.00;;;;;;6303526;28;20898;-56
2022/03/18 12:52:44;;;;;;;7.10;3.93;;;14.70;1.00;;;;;;6310018;28;20712;-56
2022/03/18 12:55:50;;;;;;;7.17;4.17;;;14.80;1.00;;;;;;6310999;28;20268;-54
2022/03/18 12:58:53;;;;;;;9.00;3.87;;;15.00;1.00;;;;;;6305830;28;20312;-55
2022/03/18 13:02:16;;;;;;;5.93;4.40;;;15.10;1.00;;;;;;6305360;28;20482;-56
2022/03/18 13:05:20;;;;;;;7.20;4.73;;;14.90;1.00;;;;;;6310340;28;20319;-55
2022/03/18 13:08:23;;;;;;;8.00;4.13;;;14.70;1.00;;;;;;6300513;28;20716;-56
2022/03/18 13:11:32;;;;;;;9.47;4.03;;;14.80;1.00;;;;;;6310502;28;20551;-56
2022/03/18 13:14:37;;;;;;;12.73;4.33;;;14.90;1.00;;;;;;6308336;28;20239;-56
2022/03/18 13:17:47;;;;;;;8.20;4.00;;;15.10;1.00;;;;;;6308512;28;20239;-56
2022/03/18 13:20:56;;;;;;;7.80;3.67;;;15.20;1.00;;;;;;6303217;28;20299;-55
2022/03/18 13:23:59;;;;;;;7.63;4.13;;;15.20;1.00;;;;;;6308282;28;20315;-55
2022/03/18 13:27:04;;;;;;;6.30;4.23;;;15.10;1.00;;;;;;6307681;28;20301;-56
2022/03/18 13:33:39;;;;;;;4.87;3.27;;;15.10;1.00;;;;;;6305765;28;20232;-56
2022/03/18 13:36:42;;;;;;;6.10;3.43;;;15.20;1.00;;;;;;6306163;28;20241;-55
2022/03/18 13:39:46;;;;;;;5.67;3.27;;;15.30;1.00;;;;;;6310716;28;20232;-56
2022/03/18 13:43:04;;;;;;;5.33;3.20;;;15.30;1.00;;;;;;6305330;28;20277;-55
2022/03/18 13:46:15;;;;;;;7.30;3.83;;;15.40;1.00;;;;;;6301831;28;20457;-55
2022/03/18 13:49:18;;;;;;;6.53;3.30;;;15.50;1.00;;;;;;6296387;28;20593;-55
2022/03/18 13:52:32;;;;;;;8.33;3.20;;;15.40;1.00;;;;;;6308739;28;20317;-56
2022/03/18 13:55:35;;;;;;;10.80;3.60;;;15.40;1.00;;;;;;6307016;28;20409;-56
2022/03/18 13:58:39;;;;;;;3.07;2.87;;;15.30;1.00;;;;;;6308658;28;20784;-55
2022/03/18 14:01:57;;;;;;;5.17;2.90;;;15.30;1.00;;;;;;6302492;28;20233;-55
2022/03/18 14:05:00;;;;;;;3.33;2.90;;;15.30;1.00;;;;;;6308752;28;20229;-63
2022/03/18 14:08:05;;;;;;;4.00;3.10;;;15.30;1.00;;;;;;6303521;28;20229;-56
2022/03/18 14:14:50;;;;;;;4.03;3.00;;;15.30;1.00;;;;;;6307086;28;20677;-57
2022/03/18 14:18:03;;;;;;;4.23;3.10;;;15.40;1.00;;;;;;6278262;27;21132;-57
2022/03/18 14:21:07;;;;;;;4.50;2.83;;;15.40;1.00;;;;;;6278565;28;20222;-56
2022/03/18 14:24:10;;;;;;;4.27;2.83;;;15.40;1.00;;;;;;6279670;28;20555;-56
2022/03/18 14:27:13;;;;;;;4.33;2.63;;;15.40;1.00;;;;;;6263240;28;20238;-54
2022/03/18 14:30:18;;;;;;;4.67;2.90;;;15.30;1.00;;;;;;6277137;28;20298;-55
2022/03/18 14:33:23;;;;;;;3.23;2.77;;;15.30;1.00;;;;;;6265623;28;20295;-54
2022/03/18 14:36:26;;;;;;;4.90;3.03;;;15.30;1.00;;;;;;6302160;28;20478;-54
2022/03/18 14:39:28;;;;;;;3.10;2.60;;;15.20;1.00;;;;;;6303831;28;20360;-56
2022/03/18 14:42:32;;;;;;;3.63;2.90;;;15.30;1.00;;;;;;6302072;28;20383;-56
2022/03/18 14:45:35;;;;;;;3.30;2.90;;;15.30;1.00;;;;;;6304071;28;20781;-55
2022/03/18 14:48:39;;;;;;;3.73;2.60;;;15.30;1.00;;;;;;6295576;28;20233;-56
2022/03/18 14:51:42;;;;;;;7.33;2.80;;;15.30;1.00;;;;;;6302284;28;20282;-55
2022/03/18 14:58:06;;;;;;;13.63;3.00;;;15.10;1.00;;;;;;6298882;28;20629;-55
2022/03/18 15:01:08;;;;;;;3.03;2.50;;;15.10;1.00;;;;;;6303089;28;20278;-53
2022/03/18 15:04:14;;;;;;;3.97;2.20;;;15.00;1.00;;;;;;6304186;28;20236;-55
2022/03/18 15:07:17;;;;;;;3.20;3.00;;;15.10;1.00;;;;;;6303569;28;20323;-55
2022/03/18 15:10:20;;;;;;;6.10;2.47;;;15.10;1.00;;;;;;6296670;28;20651;-54
2022/03/18 15:13:22;;;;;;;2.87;2.60;;;15.10;1.00;;;;;;6296018;28;20760;-56
2022/03/18 15:16:26;;;;;;;5.13;3.37;;;15.00;1.00;;;;;;6301945;28;20236;-55
2022/03/18 15:19:30;;;;;;;3.53;3.33;;;15.00;1.00;;;;;;6302951;28;20232;-56
2022/03/18 15:22:33;;;;;;;2.77;2.57;;;14.80;1.00;;;;;;6302874;28;20245;-56
2022/03/18 15:25:37;;;;;;;2.87;2.67;;;14.80;1.00;;;;;;6303330;28;20649;-56
2022/03/18 15:28:39;;;;;;;3.07;2.83;;;14.70;1.00;;;;;;6290684;28;20790;-56
2022/03/18 15:31:42;;;;;;;2.67;2.40;;;14.50;1.00;;;;;;6283240;28;20326;-54
2022/03/18 15:34:46;;;;;;;8.20;2.90;;;14.50;1.00;;;;;;6280726;28;20272;-56
2022/03/18 15:37:50;;;;;;;5.03;2.50;;;14.30;1.00;;;;;;6285588;28;20237;-55
2022/03/18 15:40:53;;;;;;;3.77;2.80;;;14.20;1.00;;;;;;6280313;28;20910;-55
2022/03/18 15:43:56;;;;;;;2.47;2.30;;;14.10;1.00;;;;;;6278586;28;20374;-55
2022/03/18 15:47:00;;;;;;;2.93;2.53;;;13.90;1.00;;;;;;6285249;28;20233;-54
2022/03/18 15:50:10;;;;;;;4.57;2.87;;;13.80;1.00;;;;;;6277559;28;20270;-54
2022/03/18 15:53:13;;;;;;;2.73;2.47;;;13.60;1.00;;;;;;6281412;28;20253;-55
2022/03/18 15:56:17;;;;;;;2.70;2.47;;;13.50;1.00;;;;;;6284018;28;20526;-54
2022/03/18 15:59:21;;;;;;;3.00;2.50;;;13.40;1.00;;;;;;6281301;28;20368;-55
2022/03/18 16:02:23;;;;;;;2.77;2.30;;;13.30;1.00;;;;;;6280670;28;20229;-55
2022/03/18 16:05:28;;;;;;;2.40;2.20;;;13.10;1.00;;;;;;6281562;28;20240;-53
2022/03/18 16:08:32;;;;;;;2.77;2.57;;;13.00;1.00;;;;;;6276883;28;20271;-55
2022/03/18 16:11:35;;;;;;;2.80;2.70;;;12.90;1.00;;;;;;6278518;28;20277;-55
2022/03/18 16:14:37;;;;;;;3.20;3.00;;;12.90;1.00;;;;;;6281357;28;20331;-54
2022/03/18 16:17:41;;;;;;;3.83;2.93;;;12.70;1.00;;;;;;6280779;28;20235;-54
2022/03/18 16:20:45;;;;;;;2.40;2.30;;;12.70;1.00;;;;;;6284581;28;20496;-56
2022/03/18 16:23:48;;;;;;;2.87;2.67;;;12.70;1.00;;;;;;6282289;28;20328;-56
2022/03/18 16:26:58;;;;;;;5.97;2.97;;;12.60;1.00;;;;;;6279812;28;20230;-55
2022/03/18 16:30:01;;;;;;;3.07;2.87;;;12.60;1.00;;;;;;6284131;28;20233;-56
2022/03/18 16:33:05;;;;;;;2.87;2.67;;;12.50;1.00;;;;;;6281251;28;20483;-55
2022/03/18 16:36:09;;;;;;;2.80;2.60;;;12.40;1.00;;;;;;6279210;28;20237;-56
2022/03/18 16:39:12;;;;;;;2.67;2.53;;;12.30;1.00;;;;;;6279413;28;20234;-55
2022/03/18 16:42:15;;;;;;;2.77;2.57;;;12.10;1.00;;;;;;6282906;28;20229;-54
2022/03/18 16:45:18;;;;;;;3.40;2.73;;;12.10;1.00;;;;;;6276542;28;20745;-55